createdAt,value
2019-05-03T00:06:08.903Z,21.17
2019-05-03T00:16:12.108Z,19.90
2019-05-03T00:26:12.841Z,23.83
2019-05-03T00:36:13.796Z,22.60
2019-05-03T00:46:14.944Z,25.50
2019-05-03T00:56:15.697Z,27.40
2019-05-03T01:06:16.674Z,30.03
2019-05-03T01:16:17.465Z,19.37
2019-05-03T01:26:18.456Z,22.33
2019-05-03T01:36:19.980Z,18.67
2019-05-03T01:46:22.782Z,28.07
2019-05-03T01:56:23.783Z,28.77
2019-05-03T02:06:24.430Z,27.43
2019-05-03T02:16:25.166Z,26.67
2019-05-03T02:26:25.913Z,25.43
2019-05-03T02:36:26.603Z,24.93
2019-05-03T02:46:27.529Z,25.23
2019-05-03T02:56:28.515Z,25.03
2019-05-03T03:06:29.799Z,25.40
2019-05-03T03:16:32.636Z,26.70
2019-05-03T03:26:41.473Z,30.60
2019-05-03T03:37:00.703Z,32.97
2019-05-03T03:46:56.574Z,31.23
2019-05-03T03:57:03.889Z,33.63
2019-05-03T04:07:01.402Z,35.20
2019-05-03T04:17:05.686Z,36.57
2019-05-03T04:27:27.475Z,41.70
2019-05-03T04:37:27.270Z,34.83
2019-05-03T04:47:28.599Z,32.97
2019-05-03T04:57:39.721Z,32.27
2019-05-03T05:07:31.857Z,33.57
2019-05-03T05:17:35.340Z,32.90
2019-05-03T05:27:48.361Z,28.93
2019-05-03T05:37:38.084Z,24.07
2019-05-03T05:47:38.825Z,20.73
2019-05-03T05:57:39.478Z,21.93
2019-05-03T06:07:40.173Z,19.63
2019-05-03T06:17:41.186Z,19.23
2019-05-03T06:27:44.878Z,22.90
2019-05-03T06:37:45.994Z,21.23
2019-05-03T06:47:49.960Z,25.80
2019-05-03T06:57:49.894Z,28.37
2019-05-03T07:07:50.608Z,20.10
2019-05-03T07:17:51.317Z,16.90
2019-05-03T07:27:52.230Z,15.93
2019-05-03T07:37:52.872Z,7.47
2019-05-03T07:47:55.820Z,7.47
2019-05-03T07:57:56.376Z,7.70
2019-05-03T08:07:57.336Z,9.77
2019-05-03T08:17:58.252Z,5.57
2019-05-03T08:27:58.930Z,9.27
2019-05-03T08:37:59.899Z,7.80
2019-05-03T08:48:00.620Z,7.27
2019-05-03T08:58:01.383Z,7.23
2019-05-03T09:08:02.287Z,8.93
2019-05-03T09:18:04.837Z,5.97
2019-05-03T09:28:05.801Z,7.13
2019-05-03T09:38:06.685Z,6.03
2019-05-03T09:48:07.646Z,5.03
2019-05-03T09:58:08.334Z,4.67
2019-05-03T10:08:08.940Z,3.13
2019-05-03T10:18:11.129Z,4.37
2019-05-03T10:28:12.161Z,2.33
2019-05-03T10:38:15.027Z,9.97
2019-05-03T10:48:15.801Z,4.00
2019-05-03T10:58:16.953Z,4.10
2019-05-03T11:08:17.843Z,3.60
2019-05-03T11:18:18.507Z,4.87
2019-05-03T11:28:19.574Z,2.50
2019-05-03T11:38:20.288Z,3.57
2019-05-03T11:48:20.887Z,4.23
2019-05-03T11:58:21.590Z,3.03
2019-05-03T12:08:22.209Z,2.80
2019-05-03T12:18:24.873Z,3.83
2019-05-03T12:28:32.413Z,3.47
2019-05-03T12:38:34.992Z,2.97
2019-05-03T12:48:35.837Z,2.60
2019-05-03T12:58:36.521Z,2.63
2019-05-03T13:08:38.417Z,4.37
2019-05-03T13:18:39.115Z,3.50
2019-05-03T13:28:41.751Z,3.03
2019-05-03T13:38:45.270Z,5.03
2019-05-03T13:48:49.090Z,1.93
2019-05-03T13:58:55.113Z,5.57
2019-05-03T14:08:55.804Z,1.63
2019-05-03T14:18:56.515Z,6.93
2019-05-03T14:28:57.172Z,5.83
2019-05-03T14:38:57.841Z,3.73
2019-05-03T14:48:58.508Z,3.50
2019-05-03T14:58:59.443Z,3.00
2019-05-03T15:09:00.256Z,1.93
2019-05-03T15:19:01.831Z,3.50
2019-05-03T15:29:04.731Z,3.37
2019-05-03T15:39:05.410Z,4.77
2019-05-03T15:49:06.139Z,6.50
2019-05-03T15:59:06.781Z,5.03
2019-05-03T16:09:07.563Z,3.90
2019-05-03T16:19:08.328Z,3.37
2019-05-03T16:29:08.983Z,5.27
2019-05-03T16:39:09.781Z,5.27
2019-05-03T16:49:10.451Z,2.23
2019-05-03T16:59:11.150Z,6.27
2019-05-03T17:09:11.940Z,5.90
2019-05-03T17:19:12.602Z,4.10
2019-05-03T17:29:13.376Z,5.43
2019-05-03T17:39:15.072Z,3.83
2019-05-03T17:49:15.923Z,10.93
2019-05-03T17:59:16.617Z,5.00
2019-05-03T18:09:17.271Z,10.97
2019-05-03T18:19:18.087Z,6.50
2019-05-03T18:29:18.836Z,6.50
2019-05-03T18:39:19.551Z,9.93
2019-05-03T18:49:21.230Z,15.77
2019-05-03T18:59:22.983Z,10.73
2019-05-03T19:09:25.071Z,13.60
2019-05-03T19:19:26.157Z,5.63
2019-05-03T19:29:26.936Z,8.20
2019-05-03T19:39:36.950Z,8.93
2019-05-03T19:49:46.114Z,9.80
2019-05-03T19:59:56.983Z,9.60
2019-05-03T20:10:07.150Z,10.33
2019-05-03T20:20:15.461Z,10.93
2019-05-03T20:30:16.521Z,13.73
2019-05-03T20:40:17.470Z,13.90
2019-05-03T20:50:18.312Z,12.67
2019-05-03T21:00:22.349Z,18.03
2019-05-03T21:10:35.029Z,13.37
2019-05-03T21:31:24.748Z,14.27
2019-05-03T21:41:25.772Z,18.93
2019-05-03T21:51:28.765Z,17.03
2019-05-03T22:01:38.761Z,16.93
2019-05-03T22:11:39.610Z,18.63
2019-05-03T22:21:49.390Z,18.53
2019-05-03T22:31:50.146Z,19.37
2019-05-03T22:41:59.731Z,21.83
2019-05-03T22:52:00.419Z,21.73
2019-05-03T23:02:16.717Z,21.63
2019-05-03T23:12:15.817Z,22.07
2019-05-03T23:32:32.227Z,22.57
2019-05-03T23:42:42.586Z,28.00
2019-05-03T23:52:54.490Z,22.23
